createdAt,value
2023-01-10T00:00:44.017Z,6.20
2023-01-10T00:03:12.312Z,6.20
2023-01-10T00:05:40.561Z,6.20
2023-01-10T00:08:08.690Z,6.20
2023-01-10T00:10:36.367Z,6.20
2023-01-10T00:13:29.862Z,6.20
2023-01-10T00:15:57.145Z,6.20
2023-01-10T00:18:24.486Z,6.20
2023-01-10T00:20:51.796Z,6.20
2023-01-10T00:23:20.020Z,6.20
2023-01-10T00:25:47.058Z,6.10
2023-01-10T00:28:20.530Z,6.20
2023-01-10T00:30:55.253Z,6.20
2023-01-10T00:33:23.026Z,6.20
2023-01-10T00:35:50.294Z,6.10
2023-01-10T00:38:17.353Z,6.10
2023-01-10T00:40:45.917Z,6.10
2023-01-10T00:43:31.642Z,6.20
2023-01-10T00:45:58.880Z,6.10
2023-01-10T00:48:25.880Z,6.10
2023-01-10T00:50:52.995Z,6.10
2023-01-10T00:53:20.239Z,6.10
2023-01-10T00:55:47.229Z,6.10
2023-01-10T00:58:15.546Z,6.10
2023-01-10T01:00:46.908Z,6.10
2023-01-10T01:03:14.268Z,6.10
2023-01-10T01:05:45.715Z,6.10
2023-01-10T01:08:14.749Z,6.10
2023-01-10T01:10:42.694Z,6.10
2023-01-10T01:13:11.137Z,6.10
2023-01-10T01:15:38.423Z,6.00
2023-01-10T01:18:06.382Z,6.00
2023-01-10T01:20:33.756Z,6.00
2023-01-10T01:23:01.196Z,6.00
2023-01-10T01:25:28.268Z,5.90
2023-01-10T01:27:55.341Z,5.90
2023-01-10T01:30:22.475Z,5.90
2023-01-10T01:32:49.464Z,5.90
2023-01-10T01:35:17.264Z,5.90
2023-01-10T01:37:44.972Z,5.90
2023-01-10T01:40:18.024Z,5.80
2023-01-10T01:42:46.858Z,5.80
2023-01-10T01:45:23.175Z,5.80
2023-01-10T01:48:01.683Z,5.80
2023-01-10T01:50:34.937Z,5.80
2023-01-10T01:53:05.069Z,5.80
2023-01-10T01:55:34.816Z,5.70
2023-01-10T01:58:08.794Z,5.70
2023-01-10T02:00:35.864Z,5.80
2023-01-10T02:03:04.809Z,5.70
2023-01-10T02:05:34.555Z,5.70
2023-01-10T02:08:02.450Z,5.70
2023-01-10T02:11:21.710Z,5.70
2023-01-10T02:13:50.596Z,5.70
2023-01-10T02:16:19.421Z,5.70
2023-01-10T02:18:46.471Z,5.70
2023-01-10T02:21:39.195Z,5.60
2023-01-10T02:24:27.475Z,5.70
2023-01-10T02:27:11.406Z,5.60
2023-01-10T02:29:56.616Z,5.70
2023-01-10T02:33:00.243Z,5.70
2023-01-10T02:36:09.834Z,5.70
2023-01-10T02:38:58.804Z,5.70
2023-01-10T02:41:50.535Z,5.70
2023-01-10T02:44:36.001Z,5.70
2023-01-10T02:47:04.456Z,5.70
2023-01-10T02:49:31.505Z,5.70
2023-01-10T02:51:58.532Z,5.70
2023-01-10T02:54:30.787Z,5.70
2023-01-10T02:57:16.646Z,5.70
2023-01-10T03:00:09.484Z,5.70
2023-01-10T03:03:14.708Z,5.70
2023-01-10T03:06:01.812Z,5.70
2023-01-10T03:08:53.369Z,5.70
2023-01-10T03:11:40.054Z,5.70
2023-01-10T03:14:26.060Z,5.70
2023-01-10T03:17:00.706Z,5.70
2023-01-10T03:19:33.881Z,5.70
2023-01-10T03:22:03.586Z,5.70
2023-01-10T03:24:39.045Z,5.60
2023-01-10T03:27:27.722Z,5.70
2023-01-10T03:30:14.194Z,5.70
2023-01-10T03:32:42.884Z,5.70
2023-01-10T03:35:11.029Z,5.60
2023-01-10T03:37:49.598Z,5.60
2023-01-10T03:40:19.372Z,5.60
2023-01-10T03:43:13.758Z,5.60
2023-01-10T03:45:45.754Z,5.60
2023-01-10T03:48:16.025Z,5.60
2023-01-10T03:50:44.702Z,5.70
2023-01-10T03:53:12.474Z,5.60
2023-01-10T03:55:42.300Z,5.60
2023-01-10T03:58:09.330Z,5.70
2023-01-10T04:00:36.458Z,5.60
2023-01-10T04:03:03.472Z,5.60
2023-01-10T04:05:30.448Z,5.60
2023-01-10T04:07:57.462Z,5.60
2023-01-10T04:10:27.199Z,5.60
2023-01-10T04:12:54.218Z,5.60
2023-01-10T04:15:21.379Z,5.60
2023-01-10T04:17:48.846Z,5.60
2023-01-10T04:20:16.155Z,5.60
2023-01-10T04:22:44.834Z,5.60
2023-01-10T04:25:11.979Z,5.60
2023-01-10T04:27:38.927Z,5.60
2023-01-10T04:30:06.641Z,5.60
2023-01-10T04:32:33.696Z,5.60
2023-01-10T04:35:00.781Z,5.60
2023-01-10T04:37:27.851Z,5.60
2023-01-10T04:39:54.885Z,5.70
2023-01-10T04:42:21.849Z,5.70
2023-01-10T04:44:48.831Z,5.60
2023-01-10T04:47:15.801Z,5.70
2023-01-10T04:49:42.770Z,5.70
2023-01-10T04:52:10.797Z,5.70
2023-01-10T04:54:37.748Z,5.70
2023-01-10T04:57:05.898Z,5.70
2023-01-10T04:59:33.267Z,5.70
2023-01-10T05:02:00.369Z,5.70
2023-01-10T05:04:27.415Z,5.70
2023-01-10T05:06:54.409Z,5.70
2023-01-10T05:09:21.471Z,5.70
2023-01-10T05:11:48.458Z,5.70
2023-01-10T05:14:15.448Z,5.70
2023-01-10T05:16:42.505Z,5.60
2023-01-10T05:19:09.577Z,5.60
2023-01-10T05:21:36.603Z,5.60
2023-01-10T05:24:03.787Z,5.60
2023-01-10T05:26:30.779Z,5.60
2023-01-10T05:28:57.770Z,5.50
2023-01-10T05:31:24.808Z,5.60
2023-01-10T05:33:52.333Z,5.50
2023-01-10T05:36:19.783Z,5.50
2023-01-10T05:38:47.180Z,5.50
2023-01-10T05:41:14.200Z,5.50
2023-01-10T05:43:41.540Z,5.50
2023-01-10T05:46:08.732Z,5.50
2023-01-10T05:48:35.791Z,5.50
2023-01-10T05:51:03.783Z,5.50
2023-01-10T05:53:30.895Z,5.50
2023-01-10T05:56:00.036Z,5.50
2023-01-10T05:58:28.101Z,5.50
2023-01-10T06:00:56.380Z,5.50
2023-01-10T06:03:23.611Z,5.50
2023-01-10T06:05:50.586Z,5.50
2023-01-10T06:08:17.677Z,5.50
2023-01-10T06:10:44.874Z,5.50
2023-01-10T06:13:12.352Z,5.50
2023-01-10T06:15:39.619Z,5.50
2023-01-10T06:18:07.208Z,5.50
2023-01-10T06:20:34.534Z,5.50
2023-01-10T06:23:04.748Z,5.50
2023-01-10T06:25:37.051Z,5.50
2023-01-10T06:28:04.473Z,5.50
2023-01-10T06:30:31.479Z,5.40
2023-01-10T06:33:05.941Z,5.40
2023-01-10T06:35:33.606Z,5.40
2023-01-10T06:38:00.639Z,5.40
2023-01-10T06:40:28.555Z,5.40
2023-01-10T06:42:55.635Z,5.40
2023-01-10T06:45:22.667Z,5.40
2023-01-10T06:47:49.568Z,5.40
2023-01-10T06:50:16.746Z,5.40
2023-01-10T06:52:43.720Z,5.40
2023-01-10T06:55:10.717Z,5.40
2023-01-10T06:57:38.679Z,5.40
2023-01-10T07:00:08.179Z,5.40
2023-01-10T07:02:35.327Z,5.40
2023-01-10T07:05:02.448Z,5.40
2023-01-10T07:07:29.598Z,5.40
2023-01-10T07:09:56.636Z,5.40
2023-01-10T07:12:23.603Z,5.40
2023-01-10T07:14:50.613Z,5.40
2023-01-10T07:17:17.680Z,5.40
2023-01-10T07:19:44.693Z,5.40
2023-01-10T07:22:12.549Z,5.40
2023-01-10T07:24:39.491Z,5.50
2023-01-10T07:27:06.553Z,5.40
2023-01-10T07:29:33.603Z,5.50
2023-01-10T07:32:00.628Z,5.50
2023-01-10T07:34:27.745Z,5.50
2023-01-10T07:36:54.768Z,5.50
2023-01-10T07:39:21.783Z,5.50
2023-01-10T07:41:49.850Z,5.50
2023-01-10T07:44:17.221Z,5.50
2023-01-10T07:46:44.327Z,5.40
2023-01-10T07:49:11.420Z,5.40
2023-01-10T07:51:38.409Z,5.40
2023-01-10T07:54:05.506Z,5.40
2023-01-10T07:56:32.871Z,5.40
2023-01-10T07:59:01.372Z,5.30
2023-01-10T08:01:29.739Z,5.30
2023-01-10T08:03:58.851Z,5.30
2023-01-10T08:06:25.927Z,5.30
2023-01-10T08:08:53.078Z,5.30
2023-01-10T08:11:20.141Z,5.30
2023-01-10T08:13:47.177Z,5.30
2023-01-10T08:16:15.696Z,5.30
2023-01-10T08:18:43.371Z,5.30
2023-01-10T08:21:10.777Z,5.30
2023-01-10T08:23:38.054Z,5.30
2023-01-10T08:26:05.876Z,5.30
2023-01-10T08:28:33.389Z,5.30
2023-01-10T08:31:06.208Z,5.30
2023-01-10T08:33:33.712Z,5.30
2023-01-10T08:36:00.732Z,5.20
2023-01-10T08:38:27.925Z,5.30
2023-01-10T08:40:58.423Z,5.30
2023-01-10T08:43:25.436Z,5.20
2023-01-10T08:45:52.491Z,5.30
2023-01-10T08:48:19.612Z,5.30
2023-01-10T08:50:46.570Z,5.30
2023-01-10T08:53:13.896Z,5.30
2023-01-10T08:55:40.952Z,5.30
2023-01-10T08:58:09.676Z,5.30
2023-01-10T09:00:36.618Z,5.30
2023-01-10T09:03:06.678Z,5.30
2023-01-10T09:05:33.760Z,5.30
2023-01-10T09:08:02.206Z,5.30
2023-01-10T09:10:30.318Z,5.30
2023-01-10T09:13:01.847Z,5.30
2023-01-10T09:15:34.883Z,5.40
2023-01-10T09:18:07.123Z,5.30
2023-01-10T09:20:37.030Z,5.30
2023-01-10T09:23:20.147Z,5.30
2023-01-10T09:25:49.007Z,5.40
2023-01-10T09:28:16.067Z,5.30
2023-01-10T09:30:44.150Z,5.30
2023-01-10T09:33:11.897Z,5.40
2023-01-10T09:35:40.864Z,5.40
2023-01-10T09:38:18.978Z,5.40
2023-01-10T09:41:00.276Z,5.40
2023-01-10T09:43:35.974Z,5.40
2023-01-10T09:46:07.758Z,5.40
2023-01-10T09:49:04.892Z,5.50
2023-01-10T09:51:44.990Z,5.50
2023-01-10T09:54:25.753Z,5.50
2023-01-10T09:56:53.881Z,5.50
2023-01-10T09:59:25.228Z,5.60
2023-01-10T10:01:59.620Z,5.60
2023-01-10T10:04:37.113Z,5.70
2023-01-10T10:07:08.685Z,5.70
2023-01-10T10:09:35.734Z,5.70
2023-01-10T10:12:17.818Z,5.70
2023-01-10T10:15:23.218Z,5.80
2023-01-10T10:18:16.821Z,5.80
2023-01-10T10:20:59.185Z,5.80
2023-01-10T10:23:34.624Z,5.90
2023-01-10T10:26:13.313Z,5.90
2023-01-10T10:28:57.874Z,5.90
2023-01-10T10:31:33.854Z,5.90
2023-01-10T10:34:39.893Z,6.00
2023-01-10T10:37:24.776Z,6.00
2023-01-10T10:39:57.549Z,6.10
2023-01-10T10:42:30.382Z,6.10
2023-01-10T10:45:05.044Z,6.20
2023-01-10T10:47:35.303Z,6.20
2023-01-10T10:50:02.367Z,6.20
2023-01-10T10:52:32.383Z,6.20
2023-01-10T10:54:59.812Z,6.30
2023-01-10T10:57:29.782Z,6.30
2023-01-10T10:59:57.906Z,6.40
2023-01-10T11:02:33.447Z,6.40
2023-01-10T11:05:05.056Z,6.40
2023-01-10T11:07:37.576Z,6.50
2023-01-10T11:10:35.129Z,6.50
2023-01-10T11:13:48.093Z,6.50
2023-01-10T11:16:31.664Z,6.60
2023-01-10T11:19:13.685Z,6.60
2023-01-10T11:21:41.537Z,6.60
2023-01-10T11:24:23.091Z,6.70
2023-01-10T11:26:51.457Z,6.70
2023-01-10T11:29:26.499Z,6.70
2023-01-10T11:31:56.163Z,6.80
2023-01-10T11:34:30.651Z,6.80
2023-01-10T11:36:57.622Z,6.80
2023-01-10T11:39:25.412Z,6.80
2023-01-10T11:41:53.442Z,6.90
2023-01-10T11:44:24.544Z,6.90
2023-01-10T11:46:59.133Z,6.90
2023-01-10T11:49:39.499Z,7.00
2023-01-10T11:52:29.737Z,7.00
2023-01-10T11:55:00.490Z,7.10
2023-01-10T11:57:30.851Z,7.10
2023-01-10T12:00:09.665Z,7.20
2023-01-10T12:02:44.657Z,7.30
2023-01-10T12:05:13.293Z,7.30
2023-01-10T12:08:07.850Z,7.30
2023-01-10T12:10:35.760Z,7.40
2023-01-10T12:13:16.768Z,7.40
2023-01-10T12:15:43.784Z,7.50
2023-01-10T12:18:12.170Z,7.50
2023-01-10T12:20:52.607Z,7.60
2023-01-10T12:23:25.250Z,7.70
2023-01-10T12:26:07.172Z,7.70
2023-01-10T12:28:51.525Z,7.80
2023-01-10T12:31:21.788Z,7.80
2023-01-10T12:33:56.541Z,7.90
2023-01-10T12:36:44.728Z,8.00
2023-01-10T12:39:18.394Z,8.10
2023-01-10T12:42:24.191Z,8.10
2023-01-10T12:44:58.460Z,8.20
2023-01-10T12:47:33.821Z,8.20
2023-01-10T12:50:41.778Z,8.30
2023-01-10T12:53:31.824Z,8.40
2023-01-10T12:56:01.681Z,8.40
2023-01-10T12:59:03.888Z,8.50
2023-01-10T13:01:40.590Z,8.50
2023-01-10T13:04:16.410Z,8.60
2023-01-10T13:06:44.615Z,8.70
2023-01-10T13:09:17.951Z,8.70
2023-01-10T13:12:01.238Z,8.80
2023-01-10T13:14:46.667Z,8.90
2023-01-10T13:17:28.397Z,8.90
2023-01-10T13:20:19.301Z,9.00
2023-01-10T13:22:48.278Z,9.10
2023-01-10T13:25:28.963Z,9.20
2023-01-10T13:28:27.053Z,9.20
2023-01-10T13:31:18.803Z,9.30
2023-01-10T13:34:00.890Z,9.40
2023-01-10T13:36:37.822Z,9.50
2023-01-10T13:39:09.043Z,9.50
2023-01-10T13:42:16.604Z,9.60
2023-01-10T13:45:01.979Z,9.70
2023-01-10T13:47:40.925Z,9.80
2023-01-10T13:50:23.387Z,9.80
2023-01-10T13:52:53.629Z,9.90
2023-01-10T13:55:29.970Z,10.00
2023-01-10T13:58:02.028Z,10.00
2023-01-10T14:00:53.611Z,10.10
2023-01-10T14:03:53.512Z,10.10
2023-01-10T14:06:29.769Z,10.20
2023-01-10T14:09:03.882Z,10.20
2023-01-10T14:11:42.837Z,10.20
2023-01-10T14:14:23.616Z,10.30
2023-01-10T14:16:54.871Z,10.30
2023-01-10T14:19:30.977Z,10.40
2023-01-10T14:22:01.495Z,10.40
2023-01-10T14:24:42.374Z,10.40
2023-01-10T14:27:17.747Z,10.50
2023-01-10T14:29:53.000Z,10.50
2023-01-10T14:32:38.992Z,10.50
2023-01-10T14:35:08.593Z,10.60
2023-01-10T14:37:43.599Z,10.60
2023-01-10T14:40:32.599Z,10.70
2023-01-10T14:43:03.744Z,10.70
2023-01-10T14:46:01.595Z,10.70
2023-01-10T14:48:35.800Z,10.80
2023-01-10T14:51:23.989Z,10.80
2023-01-10T14:54:04.389Z,10.90
2023-01-10T14:56:43.756Z,10.90
2023-01-10T14:59:25.980Z,10.90
2023-01-10T15:01:59.209Z,10.90
2023-01-10T15:04:36.261Z,10.90
2023-01-10T15:07:12.081Z,11.00
2023-01-10T15:09:39.528Z,11.00
2023-01-10T15:12:12.027Z,11.00
2023-01-10T15:14:39.221Z,11.00
2023-01-10T15:17:09.137Z,11.00
2023-01-10T15:19:38.579Z,11.10
2023-01-10T15:22:34.495Z,11.10
2023-01-10T15:25:25.578Z,11.10
2023-01-10T15:27:53.268Z,11.10
2023-01-10T15:30:26.162Z,11.10
2023-01-10T15:32:56.855Z,11.10
2023-01-10T15:35:35.207Z,11.10
2023-01-10T15:38:16.701Z,11.20
2023-01-10T15:40:44.334Z,11.20
2023-01-10T15:43:21.760Z,11.20
2023-01-10T15:45:50.112Z,11.20
2023-01-10T15:48:33.527Z,11.20
2023-01-10T15:51:04.274Z,11.20
2023-01-10T15:53:53.067Z,11.20
2023-01-10T15:56:26.110Z,11.20
2023-01-10T15:58:53.832Z,11.20
2023-01-10T16:01:21.152Z,11.20
2023-01-10T16:03:50.091Z,11.30
2023-01-10T16:06:23.517Z,11.30
2023-01-10T16:08:53.750Z,11.20
2023-01-10T16:12:05.064Z,11.30
2023-01-10T16:14:33.728Z,11.30
2023-01-10T16:17:01.686Z,11.30
2023-01-10T16:19:29.270Z,11.30
2023-01-10T16:21:58.211Z,11.30
2023-01-10T16:24:30.644Z,11.30
2023-01-10T16:27:00.535Z,11.30
2023-01-10T16:29:28.002Z,11.30
2023-01-10T16:31:55.356Z,11.30
2023-01-10T16:34:22.504Z,11.30
2023-01-10T16:36:49.433Z,11.30
2023-01-10T16:39:18.945Z,11.30
2023-01-10T16:42:05.489Z,11.30
2023-01-10T16:44:33.979Z,11.40
2023-01-10T16:47:01.214Z,11.30
2023-01-10T16:49:28.296Z,11.30
2023-01-10T16:51:57.457Z,11.30
2023-01-10T16:54:28.379Z,11.30
2023-01-10T16:56:55.934Z,11.30
2023-01-10T16:59:23.000Z,11.30
2023-01-10T17:01:58.394Z,11.30
2023-01-10T17:04:35.017Z,11.30
2023-01-10T17:07:02.246Z,11.30
2023-01-10T17:09:31.045Z,11.30
2023-01-10T17:12:13.797Z,11.40
2023-01-10T17:14:40.755Z,11.40
2023-01-10T17:17:07.776Z,11.40
2023-01-10T17:19:34.787Z,11.40
2023-01-10T17:22:01.779Z,11.40
2023-01-10T17:24:29.967Z,11.40
2023-01-10T17:26:57.005Z,11.40
2023-01-10T17:29:23.951Z,11.40
2023-01-10T17:31:51.157Z,11.40
2023-01-10T17:34:18.248Z,11.40
2023-01-10T17:36:45.221Z,11.40
2023-01-10T17:39:12.313Z,11.40
2023-01-10T17:41:39.283Z,11.50
2023-01-10T17:44:06.276Z,11.50
2023-01-10T17:46:33.297Z,11.40
2023-01-10T17:49:02.333Z,11.50
2023-01-10T17:51:29.293Z,11.50
2023-01-10T17:53:56.322Z,11.50
2023-01-10T17:56:23.509Z,11.50
2023-01-10T17:58:51.807Z,11.50
2023-01-10T18:01:24.681Z,11.50
2023-01-10T18:03:52.816Z,11.50
2023-01-10T18:06:24.352Z,11.50
2023-01-10T18:08:52.228Z,11.50
2023-01-10T18:11:19.345Z,11.50
2023-01-10T18:13:46.303Z,11.50
2023-01-10T18:16:13.225Z,11.50
2023-01-10T18:18:40.201Z,11.50
2023-01-10T18:21:13.579Z,11.50
2023-01-10T18:23:40.677Z,11.60
2023-01-10T18:26:10.534Z,11.50
2023-01-10T18:28:43.364Z,11.60
2023-01-10T18:31:16.229Z,11.60
2023-01-10T18:33:47.518Z,11.60
2023-01-10T18:36:17.294Z,11.50
2023-01-10T18:38:45.889Z,11.50
2023-01-10T18:41:13.257Z,11.60
2023-01-10T18:43:40.329Z,11.60
2023-01-10T18:46:11.708Z,11.60
2023-01-10T18:48:40.681Z,11.60
2023-01-10T18:51:10.052Z,11.60
2023-01-10T18:53:37.180Z,11.60
2023-01-10T18:56:05.662Z,11.60
2023-01-10T18:58:36.502Z,11.60
2023-01-10T19:01:12.372Z,11.60
2023-01-10T19:03:39.857Z,11.60
2023-01-10T19:06:11.232Z,11.60
2023-01-10T19:08:39.525Z,11.60
2023-01-10T19:11:13.779Z,11.60
2023-01-10T19:13:42.621Z,11.60
2023-01-10T19:16:09.712Z,11.60
2023-01-10T19:18:36.707Z,11.60
2023-01-10T19:21:04.576Z,11.60
2023-01-10T19:23:32.882Z,11.60
2023-01-10T19:26:00.090Z,11.70
2023-01-10T19:28:29.789Z,11.60
2023-01-10T19:31:04.139Z,11.60
2023-01-10T19:33:34.562Z,11.60
2023-01-10T19:36:09.764Z,11.60
2023-01-10T19:38:36.898Z,11.70
2023-01-10T19:41:04.063Z,11.60
2023-01-10T19:43:31.212Z,11.60
2023-01-10T19:45:58.357Z,11.50
2023-01-10T19:48:25.383Z,11.40
2023-01-10T19:50:52.473Z,11.30
2023-01-10T19:53:23.849Z,11.20
2023-01-10T19:56:00.605Z,11.00
2023-01-10T19:58:27.690Z,10.90
2023-01-10T20:00:54.748Z,10.80
2023-01-10T20:03:21.850Z,10.70
2023-01-10T20:05:48.861Z,10.60
2023-01-10T20:08:15.828Z,10.50
2023-01-10T20:10:42.876Z,10.40
2023-01-10T20:13:10.491Z,10.40
2023-01-10T20:15:37.512Z,10.30
2023-01-10T20:18:04.850Z,10.20
2023-01-10T20:20:31.800Z,10.10
2023-01-10T20:22:58.808Z,10.10
2023-01-10T20:25:25.728Z,10.00
2023-01-10T20:27:53.109Z,9.90
2023-01-10T20:30:20.144Z,9.80
2023-01-10T20:32:47.100Z,9.80
2023-01-10T20:35:14.205Z,9.70
2023-01-10T20:37:41.196Z,9.70
2023-01-10T20:40:09.837Z,9.60
2023-01-10T20:42:36.960Z,9.60
2023-01-10T20:45:04.461Z,9.60
2023-01-10T20:47:32.692Z,9.50
2023-01-10T20:49:59.673Z,9.50
2023-01-10T20:52:27.280Z,9.40
2023-01-10T20:54:54.433Z,9.40
2023-01-10T20:57:21.437Z,9.40
2023-01-10T20:59:48.368Z,9.40
2023-01-10T21:02:15.373Z,9.30
2023-01-10T21:04:42.329Z,9.30
2023-01-10T21:07:09.410Z,9.30
2023-01-10T21:09:36.481Z,9.30
2023-01-10T21:12:17.608Z,9.20
2023-01-10T21:14:49.453Z,9.20
2023-01-10T21:17:16.444Z,9.20
2023-01-10T21:19:43.434Z,9.10
2023-01-10T21:22:10.454Z,9.10
2023-01-10T21:24:37.541Z,9.10
2023-01-10T21:27:04.664Z,9.10
2023-01-10T21:29:31.685Z,9.00
2023-01-10T21:31:58.793Z,9.00
2023-01-10T21:34:26.525Z,9.00
2023-01-10T21:36:54.442Z,8.90
2023-01-10T21:39:21.510Z,8.90
2023-01-10T21:42:06.906Z,8.90
2023-01-10T21:44:33.902Z,8.90
2023-01-10T21:47:01.117Z,8.90
2023-01-10T21:49:28.213Z,8.90
2023-01-10T21:51:55.865Z,8.80
2023-01-10T21:54:22.825Z,8.80
2023-01-10T21:56:49.853Z,8.80
2023-01-10T21:59:17.671Z,8.80
2023-01-10T22:01:44.977Z,8.80
2023-01-10T22:04:12.757Z,8.80
2023-01-10T22:06:39.915Z,8.70
2023-01-10T22:09:07.055Z,8.80
2023-01-10T22:11:34.098Z,8.80
2023-01-10T22:14:01.071Z,8.70
2023-01-10T22:16:28.095Z,8.70
2023-01-10T22:18:55.326Z,8.70
2023-01-10T22:21:22.477Z,8.70
2023-01-10T22:23:49.500Z,8.70
2023-01-10T22:26:16.883Z,8.70
2023-01-10T22:28:43.894Z,8.70
2023-01-10T22:31:11.100Z,8.70
2023-01-10T22:33:38.295Z,8.70
2023-01-10T22:36:23.561Z,8.70
2023-01-10T22:38:50.623Z,8.70
2023-01-10T22:41:28.716Z,8.60
2023-01-10T22:43:56.287Z,8.60
2023-01-10T22:46:23.451Z,8.60
2023-01-10T22:48:50.539Z,8.60
2023-01-10T22:51:18.913Z,8.60
2023-01-10T22:53:53.542Z,8.60
2023-01-10T22:56:21.029Z,8.60
2023-01-10T22:58:48.262Z,8.60
2023-01-10T23:01:17.286Z,8.60
2023-01-10T23:03:44.588Z,8.60
2023-01-10T23:06:12.796Z,8.60
2023-01-10T23:08:42.041Z,8.60
2023-01-10T23:11:10.751Z,8.60
2023-01-10T23:13:37.926Z,8.60
2023-01-10T23:16:12.525Z,8.60
2023-01-10T23:18:40.338Z,8.60
2023-01-10T23:21:07.708Z,8.60
2023-01-10T23:23:35.021Z,8.60
2023-01-10T23:26:08.052Z,8.50
2023-01-10T23:28:38.193Z,8.50
2023-01-10T23:31:07.053Z,8.50
2023-01-10T23:33:34.967Z,8.50
2023-01-10T23:36:02.162Z,8.50
2023-01-10T23:38:31.049Z,8.50
2023-01-10T23:40:58.224Z,8.50
2023-01-10T23:43:25.385Z,8.50
2023-01-10T23:45:52.746Z,8.40
2023-01-10T23:48:20.068Z,8.40
2023-01-10T23:50:48.825Z,8.40
2023-01-10T23:53:16.545Z,8.40
2023-01-10T23:55:43.656Z,8.40
2023-01-10T23:58:10.861Z,8.40
